Saint Monance, United Kingdom
Current Conditions -  °F | °C
As of 11:50 PM on Friday 21 Nov 2014 (Local Time) from EGQL Reporting Station
Light Rain Light Rain  
Wind Chill: 42°   Ceiling: 2400
Heat Index: 48°   Visibility: 6mi
Dew Point: 43°   Wind: 18mph
Humidity: 82%   Direction: 140°SE
Pressure: 29.83"   Gusts: NA
Location:  56.21°N, 2.77°W
Report Text: EGQL 212350Z 14016KT 9999 -RA BKN024 BKN044 09/06 Q1010 WHT
Loading
Personal Weather Stations






























Interactive Weather Map New forecast layout! Learn more

10-Day Weather Forecast

Advertisements
Track Severe Weather on mobile